Hrvatski Telekom - fixed broadband Speed Test Log

Averages  Max Speed    
1 to 25 of 45034** for Host Hrvatski Telekom -
Time
  
  Speed    Size    User ConnectID   TestID  
1/25/20 1:43:50 pm 14.1 Mbps 1.76 MB/s 26 MB854126147109 HR Hzfq7KXq0 
1/25/20 1:13:13 pm 535 kbps 67 kB/s 1.4 MB854126147109 HR R6XA5tz~D 
1/25/20 12:45:45 pm 625 kbps 78 kB/s 800 kB854126147109 HR ymZ6n_nJj 
1/25/20 12:45:30 pm 14.69 Mbps 1.84 MB/s 21 MB854126147109 HR xTBFNpxCC 
1/25/20 12:42:36 pm 9.56 Mbps 1.19 MB/s 7 MB854126147109 HR mCYyDjp2B 
1/25/20 12:12:19 pm 11.71 Mbps 1.46 MB/s 21.7 MB854126147109 HR cVIAxwf32 
1/25/20 11:45:21 am 626 kbps 78 kB/s 784 kB854126147109 HR bHSq3QqUN 
1/25/20 11:45:05 am 11.3 Mbps 1.41 MB/s 21 MB854126147109 HR _HV8ssFzm 
1/25/20 11:41:47 am 13.82 Mbps 1.73 MB/s 21.8 MB854126147109 HR UDejAMd65 
1/25/20 11:11:18 am 12.5 Mbps 1.56 MB/s 21 MB854126147109 HR 9QCbmjnT9 
1/25/20 10:44:52 am 627 kbps 78 kB/s 816 kB854126147109 HR 8nWMrHvct 
1/25/20 10:44:36 am 10.93 Mbps 1.37 MB/s 21.1 MB854126147109 HR Jd9Ymqgvz 
1/25/20 10:40:49 am 11.85 Mbps 1.48 MB/s 7.6 MB854126147109 HR 92tXYMuws 
1/25/20 10:10:31 am 15.26 Mbps 1.91 MB/s 15.1 MB854126147109 HR cubL2XwAW 
1/25/20 10:09:43 am 15.36 Mbps 1.92 MB/s 14.1 MB854126147109 HR rV~X2Q6UB 
1/25/20 9:47:48 am 10 kbps 1 kB/s 256 kB854126147109 HR 2_GzIOJQn 
1/25/20 9:47:14 am 2.1 Mbps 263 kB/s 13.8 MB854126147109 HR OIF1Y1~o4 
1/25/20 9:44:10 am 2.97 Mbps 372 kB/s 2.3 MB854126147109 HR qvPB-aY1o 
1/25/20 9:37:11 am 4.09 Mbps 512 kB/s 2.5 MB854108616826 HR Dm7oGkAu_ 
1/25/20 9:15:52 am 13.28 Mbps 1.66 MB/s 21.4 MB854126147109 HR uQfl5S9k2 
1/25/20 8:45:23 am 14.15 Mbps 1.77 MB/s 21.6 MB854126147109 HR SzQkf8oBc 
1/25/20 8:44:00 am 634 kbps 79 kB/s 816 kB854126147109 HR cSmEqVcVs 
1/25/20 8:43:44 am 12.62 Mbps 1.58 MB/s 20.8 MB854126147109 HR u5daB88Zu 
1/25/20 8:36:18 am 19.87 Mbps 2.48 MB/s 13.9 MB85415592639 g7GI0s2BX 
1/25/20 8:35:32 am 13.34 Mbps 1.67 MB/s 21.1 MB85415592639 kfFD5-wC5 
  
** Partial Results: The most recent results have been displayed. Results over 50 Mbps are highlighted.
Calculated from graphed results above not entire query.
Displaying Internet Speed Test results for Host Hrvatski Telekom - fixed broadband

Minimum

Min 0.54 Mbps : 0.01 Mbps

Average

Avg 11.2 Mbps : 0.51 Mbps

Maximum

Max 19.87 Mbps : 0.63 Mbps

Minimum

Min: 0.54 Mbps : 0.01 Mbps |

Average

Avg: 11.2 Mbps : 0.51 Mbps |

Maximum

Max: 19.87 Mbps : 0.63 Mbps